createdAt,value
2018-07-26T00:01:55.819Z,7.03
2018-07-26T00:04:25.461Z,7.40
2018-07-26T00:06:54.312Z,6.47
2018-07-26T00:09:23.634Z,8.28
2018-07-26T00:11:52.234Z,9.40
2018-07-26T00:14:20.694Z,9.70
2018-07-26T00:16:49.277Z,7.25
2018-07-26T00:19:17.767Z,8.30
2018-07-26T00:21:46.233Z,9.53
2018-07-26T00:24:15.797Z,11.50
2018-07-26T00:26:45.452Z,12.45
2018-07-26T00:29:14.079Z,12.25
2018-07-26T00:31:43.140Z,16.07
2018-07-26T00:34:11.618Z,13.22
2018-07-26T00:36:45.491Z,16.10
2018-07-26T00:39:14.137Z,18.90
2018-07-26T00:41:43.781Z,15.08
2018-07-26T00:44:12.384Z,17.70
2018-07-26T00:46:41.069Z,22.80
2018-07-26T00:49:09.510Z,26.45
2018-07-26T00:51:37.998Z,19.30
2018-07-26T00:54:06.540Z,20.02
2018-07-26T00:56:35.168Z,17.42
2018-07-26T00:59:03.751Z,18.52
2018-07-26T01:01:32.382Z,20.32
2018-07-26T01:04:00.881Z,22.02
2018-07-26T01:06:29.747Z,23.18
2018-07-26T01:08:58.444Z,16.05
2018-07-26T01:11:27.404Z,19.52
2018-07-26T01:13:55.917Z,17.15
2018-07-26T01:16:24.598Z,12.13
2018-07-26T01:18:53.056Z,13.03
2018-07-26T01:21:21.842Z,13.72
2018-07-26T01:23:50.621Z,12.82
2018-07-26T01:26:19.881Z,12.45
2018-07-26T01:28:48.354Z,12.37
2018-07-26T01:31:16.960Z,11.78
2018-07-26T01:33:45.694Z,11.93
2018-07-26T01:36:14.368Z,11.73
2018-07-26T01:38:42.902Z,11.73
2018-07-26T01:41:11.431Z,10.98
2018-07-26T01:43:52.048Z,11.85
2018-07-26T01:46:22.167Z,12.45
2018-07-26T01:48:50.822Z,12.53
2018-07-26T01:51:19.341Z,11.78
2018-07-26T01:53:47.984Z,12.65
2018-07-26T01:56:16.623Z,10.95
2018-07-26T01:58:45.296Z,11.40
2018-07-26T02:01:14.563Z,11.57
2018-07-26T02:03:43.016Z,14.07
2018-07-26T02:06:11.499Z,12.18
2018-07-26T02:08:39.949Z,11.78
2018-07-26T02:11:08.429Z,10.72
2018-07-26T02:13:36.994Z,11.03
2018-07-26T02:16:05.447Z,12.55
2018-07-26T02:18:33.929Z,12.98
2018-07-26T02:21:02.417Z,11.90
2018-07-26T02:23:31.612Z,11.08
2018-07-26T02:26:00.216Z,12.60
2018-07-26T02:28:28.824Z,12.55
2018-07-26T02:30:57.351Z,15.08
2018-07-26T02:33:25.993Z,13.32
2018-07-26T02:35:54.490Z,12.75
2018-07-26T02:38:23.171Z,12.43
2018-07-26T02:40:51.726Z,13.35
2018-07-26T02:43:20.241Z,13.70
2018-07-26T02:45:48.878Z,15.32
2018-07-26T02:48:17.381Z,13.50
2018-07-26T02:50:45.995Z,14.23
2018-07-26T02:53:14.586Z,14.47
2018-07-26T02:55:43.105Z,15.38
2018-07-26T02:58:11.739Z,12.60
2018-07-26T03:00:40.936Z,13.20
2018-07-26T03:03:09.459Z,13.28
2018-07-26T03:05:37.976Z,13.20
2018-07-26T03:08:06.670Z,14.33
2018-07-26T03:10:35.144Z,13.75
2018-07-26T03:13:03.804Z,13.62
2018-07-26T03:15:33.009Z,13.90
2018-07-26T03:18:01.582Z,13.45
2018-07-26T03:20:30.254Z,15.35
2018-07-26T03:22:58.892Z,14.25
2018-07-26T03:25:27.692Z,15.40
2018-07-26T03:27:56.382Z,15.30
2018-07-26T03:30:25.245Z,14.10
2018-07-26T03:32:54.156Z,16.07
2018-07-26T03:35:23.429Z,14.77
2018-07-26T03:37:52.182Z,13.80
2018-07-26T03:40:21.096Z,14.60
2018-07-26T03:42:50.034Z,14.28
2018-07-26T03:45:23.790Z,15.23
2018-07-26T03:47:52.376Z,17.98
2018-07-26T03:50:21.321Z,15.33
2018-07-26T03:52:50.086Z,14.83
2018-07-26T03:55:19.186Z,15.68
2018-07-26T03:57:48.486Z,15.53
2018-07-26T04:00:17.361Z,15.93
2018-07-26T04:02:45.861Z,18.02
2018-07-26T04:05:14.518Z,16.73
2018-07-26T04:07:43.330Z,15.38
2018-07-26T04:10:12.469Z,13.37
2018-07-26T04:12:41.595Z,15.38
2018-07-26T04:15:10.491Z,15.58
2018-07-26T04:17:40.014Z,15.55
2018-07-26T04:20:09.649Z,15.70
2018-07-26T04:22:38.480Z,15.83
2018-07-26T04:25:07.212Z,14.23
2018-07-26T04:27:36.590Z,14.78
2018-07-26T04:30:06.004Z,16.35
2018-07-26T04:32:34.954Z,18.67
2018-07-26T04:35:03.586Z,15.75
2018-07-26T04:37:32.486Z,13.55
2018-07-26T04:40:01.255Z,16.35
2018-07-26T04:42:29.847Z,13.88
2018-07-26T04:44:59.204Z,17.00
2018-07-26T04:47:27.840Z,16.10
2018-07-26T04:49:56.997Z,16.02
2018-07-26T04:52:26.049Z,16.10
2018-07-26T04:54:55.041Z,16.93
2018-07-26T04:57:23.752Z,16.95
2018-07-26T04:59:52.813Z,15.72
2018-07-26T05:02:21.729Z,17.23
2018-07-26T05:04:55.873Z,16.90
2018-07-26T05:07:24.708Z,17.50
2018-07-26T05:09:53.710Z,16.17
2018-07-26T05:12:22.652Z,17.32
2018-07-26T05:14:51.453Z,17.95
2018-07-26T05:17:20.792Z,18.10
2018-07-26T05:19:49.878Z,18.75
2018-07-26T05:22:18.930Z,18.90
2018-07-26T05:24:47.724Z,19.07
2018-07-26T05:27:16.459Z,23.87
2018-07-26T05:29:46.048Z,24.70
2018-07-26T05:32:14.943Z,24.02
2018-07-26T05:34:43.803Z,21.60
2018-07-26T05:37:12.764Z,20.35
2018-07-26T05:39:41.870Z,20.40
2018-07-26T05:42:11.256Z,19.37
2018-07-26T05:44:40.269Z,20.97
2018-07-26T05:47:09.668Z,19.45
2018-07-26T05:49:38.449Z,17.82
2018-07-26T05:52:07.239Z,16.77
2018-07-26T05:54:36.355Z,19.32
2018-07-26T05:57:05.148Z,19.80
2018-07-26T05:59:34.286Z,16.95
2018-07-26T06:02:03.044Z,17.82
2018-07-26T06:04:37.040Z,17.32
2018-07-26T06:07:06.159Z,14.98
2018-07-26T06:09:34.875Z,19.77
2018-07-26T06:12:03.977Z,18.23
2018-07-26T06:14:38.964Z,19.27
2018-07-26T06:17:07.710Z,19.05
2018-07-26T06:19:36.661Z,15.72
2018-07-26T06:22:05.968Z,17.50
2018-07-26T06:24:34.742Z,18.70
2018-07-26T06:27:03.763Z,15.90
2018-07-26T06:29:32.810Z,15.98
2018-07-26T06:32:02.249Z,13.38
2018-07-26T06:34:31.118Z,15.88
2018-07-26T06:36:59.945Z,17.55
2018-07-26T06:39:28.915Z,17.55
2018-07-26T06:41:57.680Z,15.40
2018-07-26T06:44:26.679Z,16.48
2018-07-26T06:46:59.019Z,17.35
2018-07-26T06:49:28.050Z,16.97
2018-07-26T06:51:57.641Z,16.93
2018-07-26T06:54:26.455Z,15.63
2018-07-26T06:56:55.889Z,14.60
2018-07-26T06:59:25.080Z,14.47
2018-07-26T07:01:54.079Z,16.97
2018-07-26T07:04:23.566Z,15.80
2018-07-26T07:06:52.404Z,14.33
2018-07-26T07:09:21.664Z,15.23
2018-07-26T07:11:50.600Z,15.60
2018-07-26T07:14:19.621Z,14.90
2018-07-26T07:16:48.681Z,16.55
2018-07-26T07:19:17.714Z,13.00
2018-07-26T07:21:46.654Z,12.65
2018-07-26T07:24:20.526Z,11.60
2018-07-26T07:26:51.282Z,11.18
2018-07-26T07:29:20.240Z,12.30
2018-07-26T07:31:49.655Z,12.78
2018-07-26T07:34:18.718Z,14.23
2018-07-26T07:36:47.763Z,10.78
2018-07-26T07:39:16.551Z,12.10
2018-07-26T07:41:45.515Z,11.05
2018-07-26T07:44:14.503Z,11.20
2018-07-26T07:46:43.393Z,10.13
2018-07-26T07:49:12.058Z,11.30
2018-07-26T07:51:40.911Z,14.23
2018-07-26T07:54:09.447Z,11.40
2018-07-26T07:56:38.308Z,9.58
2018-07-26T07:59:07.233Z,10.65
2018-07-26T08:01:35.950Z,8.55
2018-07-26T08:04:05.113Z,8.88
2018-07-26T08:06:34.268Z,9.35
2018-07-26T08:09:03.054Z,10.55
2018-07-26T08:11:31.752Z,9.18
2018-07-26T08:14:00.843Z,11.10
2018-07-26T08:16:29.825Z,8.35
2018-07-26T08:18:58.633Z,11.53
2018-07-26T08:21:27.358Z,8.90
2018-07-26T08:23:56.106Z,10.13
2018-07-26T08:26:25.116Z,7.70
2018-07-26T08:28:54.310Z,8.95
2018-07-26T08:31:23.120Z,6.80
2018-07-26T08:33:51.693Z,7.15
2018-07-26T08:36:21.007Z,7.80
2018-07-26T08:38:49.977Z,8.85
2018-07-26T08:41:19.524Z,7.17
2018-07-26T08:43:48.568Z,6.85
2018-07-26T08:46:17.684Z,7.08
2018-07-26T08:48:47.122Z,10.10
2018-07-26T08:51:15.805Z,6.87
2018-07-26T08:53:45.029Z,7.47
2018-07-26T08:56:14.045Z,6.08
2018-07-26T08:58:42.644Z,6.33
2018-07-26T09:01:11.623Z,5.70
2018-07-26T09:03:40.656Z,7.22
2018-07-26T09:06:09.839Z,5.70
2018-07-26T09:08:38.827Z,5.62
2018-07-26T09:11:07.653Z,5.65
2018-07-26T09:13:36.403Z,7.40
2018-07-26T09:16:05.434Z,6.85
2018-07-26T09:18:34.095Z,6.55
2018-07-26T09:21:02.898Z,6.35
2018-07-26T09:23:31.902Z,5.47
2018-07-26T09:26:00.522Z,5.00
2018-07-26T09:28:29.073Z,8.05
2018-07-26T09:30:57.660Z,6.90
2018-07-26T09:33:26.464Z,5.53
2018-07-26T09:35:55.457Z,7.05
2018-07-26T09:38:24.223Z,7.10
2018-07-26T09:40:53.067Z,7.45
2018-07-26T09:43:21.851Z,6.58
2018-07-26T09:45:50.648Z,6.80
2018-07-26T09:48:19.722Z,4.58
2018-07-26T09:50:48.652Z,6.70
2018-07-26T09:53:17.316Z,8.30
2018-07-26T09:55:46.158Z,5.28
2018-07-26T09:58:14.661Z,7.03
2018-07-26T10:00:48.483Z,6.85
2018-07-26T10:03:17.270Z,4.80
2018-07-26T10:05:46.145Z,5.53
2018-07-26T10:08:14.989Z,7.12
2018-07-26T10:10:43.798Z,8.95
2018-07-26T10:13:12.975Z,5.67
2018-07-26T10:15:41.630Z,4.62
2018-07-26T10:18:10.320Z,4.58
2018-07-26T10:20:39.357Z,5.33
2018-07-26T10:23:08.076Z,5.92
2018-07-26T10:25:37.314Z,6.50
2018-07-26T10:28:06.525Z,5.62
2018-07-26T10:30:35.824Z,7.58
2018-07-26T10:33:04.849Z,5.33
2018-07-26T10:35:33.931Z,3.65
2018-07-26T10:38:02.548Z,5.45
2018-07-26T10:40:31.486Z,8.63
2018-07-26T10:43:00.367Z,5.25
2018-07-26T10:45:29.384Z,3.77
2018-07-26T10:47:58.743Z,5.45
2018-07-26T10:50:27.788Z,9.20
2018-07-26T10:52:58.319Z,6.50
2018-07-26T10:55:33.562Z,4.77
2018-07-26T10:58:07.201Z,3.55
2018-07-26T11:00:38.270Z,3.70
2018-07-26T11:03:13.635Z,3.17
2018-07-26T11:05:51.814Z,5.20
2018-07-26T11:28:31.470Z,2.90
2018-07-26T11:31:00.250Z,4.03
2018-07-26T11:33:29.354Z,3.08
2018-07-26T11:35:58.534Z,3.72
2018-07-26T11:38:27.660Z,3.42
2018-07-26T11:40:57.063Z,3.95
2018-07-26T11:43:25.945Z,3.80
2018-07-26T11:45:55.188Z,5.07
2018-07-26T11:48:24.113Z,3.45
2018-07-26T11:50:52.813Z,3.58
2018-07-26T11:53:22.019Z,3.08
2018-07-26T11:55:52.284Z,4.03
2018-07-26T11:58:21.102Z,4.50
2018-07-26T12:00:50.091Z,2.42
2018-07-26T12:03:25.213Z,3.12
2018-07-26T12:05:54.638Z,3.43
2018-07-26T12:08:23.083Z,6.00
2018-07-26T12:10:51.896Z,2.55
2018-07-26T12:13:21.495Z,3.87
2018-07-26T12:15:50.355Z,4.78
2018-07-26T12:18:19.504Z,5.67
2018-07-26T12:20:48.348Z,3.42
2018-07-26T12:23:17.423Z,3.80
2018-07-26T12:25:46.209Z,4.97
2018-07-26T12:28:15.248Z,2.98
2018-07-26T12:30:44.498Z,3.72
2018-07-26T12:33:13.807Z,2.95
2018-07-26T12:35:43.291Z,4.58
2018-07-26T12:38:12.589Z,3.22
2018-07-26T12:40:41.792Z,3.55
2018-07-26T12:43:11.598Z,5.15
2018-07-26T12:45:40.606Z,3.35
2018-07-26T12:48:09.578Z,4.08
2018-07-26T12:50:38.709Z,2.77
2018-07-26T12:53:07.473Z,4.28
2018-07-26T12:55:36.301Z,4.95
2018-07-26T12:58:05.498Z,2.10
2018-07-26T13:00:34.790Z,5.92
2018-07-26T13:03:03.785Z,3.27
2018-07-26T13:05:33.189Z,4.25
2018-07-26T13:08:02.357Z,6.53
2018-07-26T13:10:31.763Z,2.87
2018-07-26T13:13:01.374Z,3.42
2018-07-26T13:15:30.754Z,2.80
2018-07-26T13:18:00.114Z,3.87
2018-07-26T13:20:29.420Z,3.20
2018-07-26T13:22:58.607Z,4.95
2018-07-26T13:25:27.452Z,3.75
2018-07-26T13:27:56.686Z,5.08
2018-07-26T13:30:26.256Z,5.27
2018-07-26T13:32:55.369Z,6.92
2018-07-26T13:35:24.725Z,3.50
2018-07-26T13:37:53.970Z,4.28
2018-07-26T13:40:23.411Z,3.67
2018-07-26T13:42:52.283Z,3.00
2018-07-26T13:45:21.494Z,5.70
2018-07-26T13:47:50.528Z,6.45
2018-07-26T13:50:19.675Z,3.63
2018-07-26T13:52:48.536Z,3.02
2018-07-26T13:55:17.737Z,5.67
2018-07-26T13:57:46.626Z,4.00
2018-07-26T14:00:15.451Z,4.23
2018-07-26T14:02:44.701Z,3.47
2018-07-26T14:05:14.296Z,3.63
2018-07-26T14:07:43.544Z,3.50
2018-07-26T14:10:12.110Z,2.68
2018-07-26T14:12:42.293Z,2.85
2018-07-26T14:15:12.489Z,2.90
2018-07-26T14:17:42.564Z,3.67
2018-07-26T14:20:14.202Z,2.85
2018-07-26T14:22:43.637Z,3.50
2018-07-26T14:25:13.420Z,2.90
2018-07-26T14:27:43.198Z,3.52
2018-07-26T14:30:12.909Z,3.30
2018-07-26T14:32:42.909Z,4.40
2018-07-26T14:35:13.194Z,2.90
2018-07-26T14:37:49.206Z,3.50
2018-07-26T15:00:29.026Z,8.15
2018-07-26T15:02:58.263Z,3.12
2018-07-26T15:05:27.613Z,3.98
2018-07-26T15:07:56.666Z,7.30
2018-07-26T15:10:25.557Z,5.17
2018-07-26T15:12:54.639Z,9.75
2018-07-26T15:15:23.983Z,20.80
2018-07-26T15:17:53.232Z,9.53
2018-07-26T15:20:21.887Z,6.05
2018-07-26T15:22:50.706Z,4.25
2018-07-26T15:25:24.973Z,6.23
2018-07-26T15:27:54.624Z,2.22
2018-07-26T15:30:23.676Z,2.83
2018-07-26T15:32:53.448Z,3.20
2018-07-26T15:35:22.840Z,4.13
2018-07-26T15:37:52.065Z,2.58
2018-07-26T15:40:21.236Z,4.03
2018-07-26T15:42:50.395Z,4.65
2018-07-26T15:45:19.362Z,5.13
2018-07-26T15:47:48.516Z,3.00
2018-07-26T15:50:17.630Z,5.23
2018-07-26T15:52:47.022Z,2.95
2018-07-26T15:55:16.785Z,2.72
2018-07-26T15:57:45.892Z,3.50
2018-07-26T16:00:15.089Z,4.03
2018-07-26T16:02:44.068Z,3.62
2018-07-26T16:05:13.207Z,3.02
2018-07-26T16:07:42.682Z,5.95
2018-07-26T16:10:11.835Z,6.53
2018-07-26T16:12:40.854Z,4.35
2018-07-26T16:15:10.993Z,3.87
2018-07-26T16:17:40.797Z,2.92
2018-07-26T16:20:10.671Z,3.75
2018-07-26T16:22:39.936Z,3.42
2018-07-26T16:25:10.125Z,2.70
2018-07-26T16:27:42.346Z,6.53
2018-07-26T17:21:54.950Z,7.55
2018-07-26T17:32:11.652Z,6.50
2018-07-26T17:42:05.814Z,4.95
2018-07-26T17:44:34.914Z,4.97
2018-07-26T17:47:04.132Z,5.28
2018-07-26T17:49:32.814Z,5.37
2018-07-26T17:52:01.756Z,6.22
2018-07-26T17:54:30.566Z,4.33
2018-07-26T17:56:59.722Z,5.97
2018-07-26T17:59:28.889Z,4.10
2018-07-26T18:01:57.540Z,4.55
2018-07-26T18:04:26.569Z,6.42
2018-07-26T18:06:55.370Z,8.60
2018-07-26T18:09:24.484Z,7.53
2018-07-26T18:11:53.488Z,5.03
2018-07-26T18:14:22.744Z,8.83
2018-07-26T18:16:51.795Z,6.00
2018-07-26T18:19:20.477Z,6.03
2018-07-26T18:21:49.675Z,5.65
2018-07-26T18:24:18.833Z,8.03
2018-07-26T18:26:47.993Z,6.15
2018-07-26T18:29:17.118Z,4.42
2018-07-26T18:31:46.303Z,5.28
2018-07-26T18:34:15.328Z,6.45
2018-07-26T18:36:44.588Z,5.97
2018-07-26T18:39:14.089Z,5.10
2018-07-26T18:41:43.244Z,5.60
2018-07-26T18:44:12.333Z,7.00
2018-07-26T18:46:41.236Z,5.43
2018-07-26T18:49:10.241Z,5.03
2018-07-26T18:51:45.903Z,8.13
2018-07-26T18:54:14.989Z,7.17
2018-07-26T18:56:43.763Z,3.77
2018-07-26T18:59:12.488Z,4.35
2018-07-26T19:01:41.419Z,4.85
2018-07-26T19:04:10.685Z,7.95
2018-07-26T19:06:40.130Z,8.35
2018-07-26T19:09:11.243Z,6.28
2018-07-26T19:11:40.520Z,9.73
2018-07-26T19:14:09.886Z,4.40
2018-07-26T19:16:39.089Z,5.17
2018-07-26T19:19:08.087Z,4.62
2018-07-26T19:21:37.018Z,6.12
2018-07-26T19:24:06.220Z,4.47
2018-07-26T19:26:41.337Z,5.65
2018-07-26T19:29:10.197Z,5.70
2018-07-26T19:31:39.285Z,5.12
2018-07-26T19:34:08.139Z,5.37
2018-07-26T19:36:36.922Z,5.92
2018-07-26T19:39:09.783Z,7.33
2018-07-26T19:41:38.635Z,4.97
2018-07-26T19:44:07.709Z,3.87
2018-07-26T19:46:36.422Z,5.67
2018-07-26T19:49:05.354Z,4.95
2018-07-26T19:51:33.969Z,4.45
2018-07-26T19:54:02.704Z,5.62
2018-07-26T19:56:31.712Z,7.10
2018-07-26T19:59:00.513Z,3.85
2018-07-26T20:01:29.063Z,7.62
2018-07-26T20:03:57.925Z,5.10
2018-07-26T20:06:26.501Z,4.08
2018-07-26T20:08:55.150Z,4.92
2018-07-26T20:11:23.785Z,6.03
2018-07-26T20:13:52.350Z,5.12
2018-07-26T20:16:20.861Z,4.85
2018-07-26T20:18:49.720Z,5.28
2018-07-26T20:21:18.181Z,4.33
2018-07-26T20:23:46.847Z,5.65
2018-07-26T20:26:15.659Z,8.83
2018-07-26T20:28:45.144Z,7.00
2018-07-26T20:31:13.711Z,6.30
2018-07-26T20:33:42.235Z,7.95
2018-07-26T20:36:10.755Z,9.63
2018-07-26T20:38:39.353Z,5.12
2018-07-26T20:41:08.215Z,6.00
2018-07-26T20:43:36.776Z,4.10
2018-07-26T20:46:05.676Z,6.90
2018-07-26T20:48:35.703Z,4.22
2018-07-26T20:51:04.249Z,4.97
2018-07-26T20:53:32.891Z,4.67
2018-07-26T20:56:01.351Z,6.12
2018-07-26T20:58:29.923Z,4.97
2018-07-26T21:00:58.602Z,6.85
2018-07-26T21:03:27.173Z,6.00
2018-07-26T21:05:56.113Z,13.53
2018-07-26T21:08:24.612Z,6.00
2018-07-26T21:10:53.225Z,4.22
2018-07-26T21:13:21.820Z,6.03
2018-07-26T21:15:50.433Z,5.55
2018-07-26T21:18:18.852Z,6.17
2018-07-26T21:20:47.351Z,10.05
2018-07-26T21:23:16.148Z,9.48
2018-07-26T21:25:46.819Z,6.78
2018-07-26T21:28:15.575Z,9.68
2018-07-26T21:30:44.221Z,8.03
2018-07-26T21:33:13.141Z,6.60
2018-07-26T21:35:41.786Z,6.05
2018-07-26T21:38:10.467Z,5.37
2018-07-26T21:40:39.108Z,8.10
2018-07-26T21:43:07.684Z,6.20
2018-07-26T21:45:36.142Z,6.55
2018-07-26T21:48:04.842Z,4.67
2018-07-26T21:50:33.710Z,7.37
2018-07-26T21:53:02.284Z,7.10
2018-07-26T21:55:31.109Z,5.97
2018-07-26T21:57:59.668Z,9.80
2018-07-26T22:00:37.796Z,9.13
2018-07-26T22:03:07.263Z,5.97
2018-07-26T22:05:36.447Z,7.17
2018-07-26T22:08:05.312Z,13.93
2018-07-26T22:10:33.848Z,10.03
2018-07-26T22:13:02.331Z,9.38
2018-07-26T22:15:30.923Z,6.20
2018-07-26T22:17:59.367Z,6.17
2018-07-26T22:20:28.022Z,7.87
2018-07-26T22:22:56.993Z,11.75
2018-07-26T22:25:25.506Z,12.27
2018-07-26T22:27:53.965Z,11.55
2018-07-26T22:30:22.461Z,8.63
2018-07-26T22:32:51.222Z,12.78
2018-07-26T22:35:19.737Z,12.03
2018-07-26T22:37:48.253Z,9.78
2018-07-26T22:40:16.844Z,10.95
2018-07-26T22:42:48.226Z,10.68
2018-07-26T22:45:16.891Z,8.53
2018-07-26T22:47:45.605Z,13.08
2018-07-26T22:50:14.132Z,9.83
2018-07-26T22:52:42.869Z,7.87
2018-07-26T22:55:11.450Z,10.05
2018-07-26T22:57:40.200Z,11.57
2018-07-26T23:00:08.963Z,9.85
2018-07-26T23:02:37.702Z,9.68
2018-07-26T23:05:06.740Z,11.44
2018-07-26T23:07:35.369Z,9.85
2018-07-26T23:10:03.921Z,7.97
2018-07-26T23:12:32.439Z,11.18
2018-07-26T23:15:00.964Z,6.65
2018-07-26T23:17:29.432Z,8.30
2018-07-26T23:19:57.996Z,8.38
2018-07-26T23:22:26.657Z,9.23
2018-07-26T23:24:55.439Z,7.72
2018-07-26T23:27:24.073Z,6.78
2018-07-26T23:29:52.728Z,9.05
2018-07-26T23:32:21.404Z,9.38
2018-07-26T23:34:49.852Z,9.33
2018-07-26T23:37:18.496Z,10.08
2018-07-26T23:39:46.937Z,6.47
2018-07-26T23:42:15.400Z,8.33
